Aviation Digital Data Service (ADDS)

Output produced by METARs form (1821 UTC 24 June 2019)
found at http://www.aviationweather.gov/metar/data/
 
METAR text: TKPK 241800Z 10011KT 9999 FC -SHRA FEW010 SCT018 29/25 Q1016
Conditions at: TKPK (GOLDEN ROCKS/NEV, KN) observed 1800 UTC 24 June 2019
Temperature: 29.0°C (84°F)
Dewpoint: 25.0°C (77°F) [RH = 79%]
Pressure (altimeter): 30.00 inches Hg (1016.0 mb)
Winds: from the E (100 degrees) at 13 MPH (11 knots; 5.7 m/s)
Visibility: 6 or more miles (10+ km)
Ceiling: at least 12,000 feet AGL
Clouds: few clouds at 1000 feet AGL
scattered clouds at 1800 feet AGL
Weather: FC -SHRA  (funnel cloud, light rain showers)

METAR text: TKPK 241700Z 10012KT 9999 VCSH SCT012 31/26 Q1016
Conditions at: TKPK (GOLDEN ROCKS/NEV, KN) observed 1700 UTC 24 June 2019
Temperature: 31.0°C (88°F)
Dewpoint: 26.0°C (79°F) [RH = 75%]
Pressure (altimeter): 30.00 inches Hg (1016.0 mb)
Winds: from the E (100 degrees) at 14 MPH (12 knots; 6.2 m/s)
Visibility: 6 or more miles (10+ km)
Ceiling: at least 12,000 feet AGL
Clouds: scattered clouds at 1200 feet AGL
Weather: VCSH  (showers in vicinity)

METAR text: TKPK 241600Z 09010KT 9999 FEW022 BKN045 29/24 Q1016
Conditions at: TKPK (GOLDEN ROCKS/NEV, KN) observed 1600 UTC 24 June 2019
Temperature: 29.0°C (84°F)
Dewpoint: 24.0°C (75°F) [RH = 74%]
Pressure (altimeter): 30.00 inches Hg (1016.0 mb)
Winds: from the E (90 degrees) at 12 MPH (10 knots; 5.1 m/s)
Visibility: 6 or more miles (10+ km)
Ceiling: 4500 feet AGL
Clouds: few clouds at 2200 feet AGL
broken clouds at 4500 feet AGL
Weather: no significant weather observed at this time

METAR text: TKPK 241500Z 10012KT 9999 SCT017 30/25 Q1017
Conditions at: TKPK (GOLDEN ROCKS/NEV, KN) observed 1500 UTC 24 June 2019
Temperature: 30.0°C (86°F)
Dewpoint: 25.0°C (77°F) [RH = 75%]
Pressure (altimeter): 30.03 inches Hg (1017.0 mb)
Winds: from the E (100 degrees) at 14 MPH (12 knots; 6.2 m/s)
Visibility: 6 or more miles (10+ km)
Ceiling: at least 12,000 feet AGL
Clouds: scattered clouds at 1700 feet AGL
Weather: no significant weather observed at this time

METAR text: TKPK 241400Z 06011KT 9999 SCT016 29/25 Q1017
Conditions at: TKPK (GOLDEN ROCKS/NEV, KN) observed 1400 UTC 24 June 2019
Temperature: 29.0°C (84°F)
Dewpoint: 25.0°C (77°F) [RH = 79%]
Pressure (altimeter): 30.03 inches Hg (1017.0 mb)
Winds: from the ENE (60 degrees) at 13 MPH (11 knots; 5.7 m/s)
Visibility: 6 or more miles (10+ km)
Ceiling: at least 12,000 feet AGL
Clouds: scattered clouds at 1600 feet AGL
Weather: no significant weather observed at this time

METAR text: TKPK 241300Z 07013KT 9999 FEW012CB 29/25 Q1016
Conditions at: TKPK (GOLDEN ROCKS/NEV, KN) observed 1300 UTC 24 June 2019
Temperature: 29.0°C (84°F)
Dewpoint: 25.0°C (77°F) [RH = 79%]
Pressure (altimeter): 30.00 inches Hg (1016.0 mb)
Winds: from the ENE (70 degrees) at 15 MPH (13 knots; 6.7 m/s)
Visibility: 6 or more miles (10+ km)
Ceiling: at least 12,000 feet AGL
Clouds: few clouds at 1200 feet AGL
Weather: no significant weather observed at this time

METAR text: TKPK 241200Z 07011KT 9999 FEW012CB SCT016 29/25 Q1016
Conditions at: TKPK (GOLDEN ROCKS/NEV, KN) observed 1200 UTC 24 June 2019
Temperature: 29.0°C (84°F)
Dewpoint: 25.0°C (77°F) [RH = 79%]
Pressure (altimeter): 30.00 inches Hg (1016.0 mb)
Winds: from the ENE (70 degrees) at 13 MPH (11 knots; 5.7 m/s)
Visibility: 6 or more miles (10+ km)
Ceiling: at least 12,000 feet AGL
Clouds: few clouds at 1200 feet AGL
scattered clouds at 1600 feet AGL
Weather: no significant weather observed at this time

METAR text: TKPK 241100Z 07011KT 9999 BKN016 28/25 Q1016
Conditions at: TKPK (GOLDEN ROCKS/NEV, KN) observed 1100 UTC 24 June 2019
Temperature: 28.0°C (82°F)
Dewpoint: 25.0°C (77°F) [RH = 84%]
Pressure (altimeter): 30.00 inches Hg (1016.0 mb)
Winds: from the ENE (70 degrees) at 13 MPH (11 knots; 5.7 m/s)
Visibility: 6 or more miles (10+ km)
Ceiling: 1600 feet AGL
Clouds: broken clouds at 1600 feet AGL
Weather: no significant weather observed at this time

METAR text: TKPK 241000Z 05010KT 9999 SCT016 27/24 Q1016
Conditions at: TKPK (GOLDEN ROCKS/NEV, KN) observed 1000 UTC 24 June 2019
Temperature: 27.0°C (81°F)
Dewpoint: 24.0°C (75°F) [RH = 84%]
Pressure (altimeter): 30.00 inches Hg (1016.0 mb)
Winds: from the NE (50 degrees) at 12 MPH (10 knots; 5.1 m/s)
Visibility: 6 or more miles (10+ km)
Ceiling: at least 12,000 feet AGL
Clouds: scattered clouds at 1600 feet AGL
Weather: no significant weather observed at this time

METAR text: TKPK 240100Z 03009KT 9999 FEW018 27/25 Q1017
Conditions at: TKPK (GOLDEN ROCKS/NEV, KN) observed 0100 UTC 24 June 2019
Temperature: 27.0°C (81°F)
Dewpoint: 25.0°C (77°F) [RH = 89%]
Pressure (altimeter): 30.03 inches Hg (1017.0 mb)
Winds: from the NNE (30 degrees) at 10 MPH (9 knots; 4.6 m/s)
Visibility: 6 or more miles (10+ km)
Ceiling: at least 12,000 feet AGL
Clouds: few clouds at 1800 feet AGL
Weather: no significant weather observed at this time

METAR text: TKPK 240000Z 08009KT 9999 FEW018 28/25 Q1017
Conditions at: TKPK (GOLDEN ROCKS/NEV, KN) observed 0000 UTC 24 June 2019
Temperature: 28.0°C (82°F)
Dewpoint: 25.0°C (77°F) [RH = 84%]
Pressure (altimeter): 30.03 inches Hg (1017.0 mb)
Winds: from the E (80 degrees) at 10 MPH (9 knots; 4.6 m/s)
Visibility: 6 or more miles (10+ km)
Ceiling: at least 12,000 feet AGL
Clouds: few clouds at 1800 feet AGL
Weather: no significant weather observed at this time

METAR text: TKPK 232300Z 05008KT 9999 FEW012 28/25 Q1017
Conditions at: TKPK (GOLDEN ROCKS/NEV, KN) observed 2300 UTC 23 June 2019
Temperature: 28.0°C (82°F)
Dewpoint: 25.0°C (77°F) [RH = 84%]
Pressure (altimeter): 30.03 inches Hg (1017.0 mb)
Winds: from the NE (50 degrees) at 9 MPH (8 knots; 4.1 m/s)
Visibility: 6 or more miles (10+ km)
Ceiling: at least 12,000 feet AGL
Clouds: few clouds at 1200 feet AGL
Weather: no significant weather observed at this time

METAR text: TKPK 232200Z 05011KT 9999 FEW016 28/25 Q1017
Conditions at: TKPK (GOLDEN ROCKS/NEV, KN) observed 2200 UTC 23 June 2019
Temperature: 28.0°C (82°F)
Dewpoint: 25.0°C (77°F) [RH = 84%]
Pressure (altimeter): 30.03 inches Hg (1017.0 mb)
Winds: from the NE (50 degrees) at 13 MPH (11 knots; 5.7 m/s)
Visibility: 6 or more miles (10+ km)
Ceiling: at least 12,000 feet AGL
Clouds: few clouds at 1600 feet AGL
Weather: no significant weather observed at this time

METAR text: TKPK 232100Z 06011KT 9999 SCT017 27/26 Q1016
Conditions at: TKPK (GOLDEN ROCKS/NEV, KN) observed 2100 UTC 23 June 2019
Temperature: 27.0°C (81°F)
Dewpoint: 26.0°C (79°F) [RH = 94%]
Pressure (altimeter): 30.00 inches Hg (1016.0 mb)
Winds: from the ENE (60 degrees) at 13 MPH (11 knots; 5.7 m/s)
Visibility: 6 or more miles (10+ km)
Ceiling: at least 12,000 feet AGL
Clouds: scattered clouds at 1700 feet AGL
Weather: no significant weather observed at this time

METAR text: TKPK 232000Z 120013KT +SHRA 3000 BKN017 26/26 Q1017
Conditions at: TKPK (GOLDEN ROCKS/NEV, KN) observed 2000 UTC 23 June 2019
Temperature: 26.0°C (79°F)
Dewpoint: 26.0°C (79°F) [RH = 100%]
Pressure (altimeter): 30.03 inches Hg (1017.0 mb)
Winds: from the ESE (120 degrees) at 15 MPH (13 knots; 6.7 m/s)
Visibility: 1.86 miles (2.99 km)
Ceiling: 1700 feet AGL
Clouds: broken clouds at 1700 feet AGL
Weather: +SHRA  (heavy rain showers)

METAR text: TKPK 231900Z 07014KT 9999 BKN018 30/25 Q1017
Conditions at: TKPK (GOLDEN ROCKS/NEV, KN) observed 1900 UTC 23 June 2019
Temperature: 30.0°C (86°F)
Dewpoint: 25.0°C (77°F) [RH = 75%]
Pressure (altimeter): 30.03 inches Hg (1017.0 mb)
Winds: from the ENE (70 degrees) at 16 MPH (14 knots; 7.2 m/s)
Visibility: 6 or more miles (10+ km)
Ceiling: 1800 feet AGL
Clouds: broken clouds at 1800 feet AGL
Weather: no significant weather observed at this time

METAR text: TKPK 231800Z 09008KT 9999 BKN018 30/24 Q1017
Conditions at: TKPK (GOLDEN ROCKS/NEV, KN) observed 1800 UTC 23 June 2019
Temperature: 30.0°C (86°F)
Dewpoint: 24.0°C (75°F) [RH = 70%]
Pressure (altimeter): 30.03 inches Hg (1017.0 mb)
Winds: from the E (90 degrees) at 9 MPH (8 knots; 4.1 m/s)
Visibility: 6 or more miles (10+ km)
Ceiling: 1800 feet AGL
Clouds: broken clouds at 1800 feet AGL
Weather: no significant weather observed at this time

METAR text: TKPK 231700Z 08008KT 9999 SCT021 32/24 Q1018
Conditions at: TKPK (GOLDEN ROCKS/NEV, KN) observed 1700 UTC 23 June 2019
Temperature: 32.0°C (90°F)
Dewpoint: 24.0°C (75°F) [RH = 63%]
Pressure (altimeter): 30.06 inches Hg (1018.0 mb)
Winds: from the E (80 degrees) at 9 MPH (8 knots; 4.1 m/s)
Visibility: 6 or more miles (10+ km)
Ceiling: at least 12,000 feet AGL
Clouds: scattered clouds at 2100 feet AGL
Weather: no significant weather observed at this time

METAR text: TKPK 231600Z 07010KT 9999 SCT018 31/24 Q1018
Conditions at: TKPK (GOLDEN ROCKS/NEV, KN) observed 1600 UTC 23 June 2019
Temperature: 31.0°C (88°F)
Dewpoint: 24.0°C (75°F) [RH = 66%]
Pressure (altimeter): 30.06 inches Hg (1018.0 mb)
Winds: from the ENE (70 degrees) at 12 MPH (10 knots; 5.1 m/s)
Visibility: 6 or more miles (10+ km)
Ceiling: at least 12,000 feet AGL
Clouds: scattered clouds at 1800 feet AGL
Weather: no significant weather observed at this time

METAR text: TKPK 231500Z 09010KT 9999 FEW019 31/24 Q1018
Conditions at: TKPK (GOLDEN ROCKS/NEV, KN) observed 1500 UTC 23 June 2019
Temperature: 31.0°C (88°F)
Dewpoint: 24.0°C (75°F) [RH = 66%]
Pressure (altimeter): 30.06 inches Hg (1018.0 mb)
Winds: from the E (90 degrees) at 12 MPH (10 knots; 5.1 m/s)
Visibility: 6 or more miles (10+ km)
Ceiling: at least 12,000 feet AGL
Clouds: few clouds at 1900 feet AGL
Weather: no significant weather observed at this time

METAR text: TKPK 231400Z 06008KT 9999 SCT020 30/23 Q1019
Conditions at: TKPK (GOLDEN ROCKS/NEV, KN) observed 1400 UTC 23 June 2019
Temperature: 30.0°C (86°F)
Dewpoint: 23.0°C (73°F) [RH = 66%]
Pressure (altimeter): 30.09 inches Hg (1019.0 mb)
Winds: from the ENE (60 degrees) at 9 MPH (8 knots; 4.1 m/s)
Visibility: 6 or more miles (10+ km)
Ceiling: at least 12,000 feet AGL
Clouds: scattered clouds at 2000 feet AGL
Weather: no significant weather observed at this time

METAR text: TKPK 231300Z 09012KT 9999 SCT021 29/23 Q1018
Conditions at: TKPK (GOLDEN ROCKS/NEV, KN) observed 1300 UTC 23 June 2019
Temperature: 29.0°C (84°F)
Dewpoint: 23.0°C (73°F) [RH = 70%]
Pressure (altimeter): 30.06 inches Hg (1018.0 mb)
Winds: from the E (90 degrees) at 14 MPH (12 knots; 6.2 m/s)
Visibility: 6 or more miles (10+ km)
Ceiling: at least 12,000 feet AGL
Clouds: scattered clouds at 2100 feet AGL
Weather: no significant weather observed at this time

METAR text: TKPK 231200Z 07011KT 9999 FEW020 29/23 Q1018
Conditions at: TKPK (GOLDEN ROCKS/NEV, KN) observed 1200 UTC 23 June 2019
Temperature: 29.0°C (84°F)
Dewpoint: 23.0°C (73°F) [RH = 70%]
Pressure (altimeter): 30.06 inches Hg (1018.0 mb)
Winds: from the ENE (70 degrees) at 13 MPH (11 knots; 5.7 m/s)
Visibility: 6 or more miles (10+ km)
Ceiling: at least 12,000 feet AGL
Clouds: few clouds at 2000 feet AGL
Weather: no significant weather observed at this time

METAR text: TKPK 231100Z 05007KT 9999 FEW019 28/22 Q1018
Conditions at: TKPK (GOLDEN ROCKS/NEV, KN) observed 1100 UTC 23 June 2019
Temperature: 28.0°C (82°F)
Dewpoint: 22.0°C (72°F) [RH = 70%]
Pressure (altimeter): 30.06 inches Hg (1018.0 mb)
Winds: from the NE (50 degrees) at 8 MPH (7 knots; 3.6 m/s)
Visibility: 6 or more miles (10+ km)
Ceiling: at least 12,000 feet AGL
Clouds: few clouds at 1900 feet AGL
Weather: no significant weather observed at this time

Forecast for: TKPK (GOLDEN ROCKS/NEV, KN)
Text: TKPK 241728Z 2418/2518 09012KT P6SM VCSH FEW022 BKN045
Forecast period: 1800 to 2300 UTC 24 June 2019
Forecast type: FROM: standard forecast or significant change
Winds: from the E (90 degrees) at 14 MPH (12 knots; 6.2 m/s)
Visibility: 6 or more miles 10+ km)
Ceiling: 4500 feet AGL
Clouds: few clouds at 2200 feet AGL
broken clouds at 4500 feet AGL
Weather: VCSH  (showers in vicinity)
Text: TEMPO 2418/2422 -SHRA BKN016 BKN040
Forecast period: 1800 to 2200 UTC 24 June 2019
Forecast type: TEMPORARY: The following changes expected for less than half the time period
Visibility: missing
Ceiling: 1600 feet AGL
Clouds: broken clouds at 1600 feet AGL
broken clouds at 4000 feet AGL
Weather: -SHRA  (light rain showers)
Text: FM242300 07008KT P6SM VCSH SCT018 SCT020
Forecast period: 2300 UTC 24 June 2019 to 1000 UTC 25 June 2019
Forecast type: FROM: standard forecast or significant change
Winds: from the ENE (70 degrees) at 9 MPH (8 knots; 4.1 m/s)
Visibility: 6 or more miles 10+ km)
Ceiling: at least 12,000 feet AGL
Clouds: scattered clouds at 1800 feet AGL
scattered clouds at 2000 feet AGL
Weather: VCSH  (showers in vicinity)
Text: FM251000 11007KT P6SM FEW018
Forecast period: 1000 to 1800 UTC 25 June 2019
Forecast type: FROM: standard forecast or significant change
Winds: from the ESE (110 degrees) at 8 MPH (7 knots; 3.6 m/s)
Visibility: 6 or more miles 10+ km)
Ceiling: at least 12,000 feet AGL
Clouds: few clouds at 1800 feet AGL
Weather: no significant weather forecast for this period